SDM601 URMM-URSS
Flight info
| Callsign | SDM601 |
|---|---|
| Flight time | 0h 47m |
| Altitude | 28000 |
| Route | ABELA5L ABELA B967 ERSAR G487 BINOL BINOL1K |
| Aircraft | A320/M-SDE3FGHIRWY/LB1 |
Departure
| Time | 2026-05-05 16:46 |
|---|---|
| Airport | Mineralnye Vody Airport (URMM) |
Arrival
| Time | 2026-05-05 17:33 |
|---|---|
| Airport | Sochi International Airport (URSS) |
| Time | Latitude | Longitude | Altitude | Speed | Heading |
|---|---|---|---|---|---|
| 2026-05-05 16:33 | 44.21876 | 43.08737 | 1051 ft | 0 kts | 212° |
| 2026-05-05 16:37 | 44.21888 | 43.08747 | 1052 ft | 2 kts | 216° |
| 2026-05-05 16:38 | 44.21902 | 43.08760 | 1051 ft | 2 kts | 217° |
| 2026-05-05 16:38 | 44.21915 | 43.08773 | 1051 ft | 2 kts | 219° |
| 2026-05-05 16:38 | 44.21927 | 43.08788 | 1051 ft | 2 kts | 229° |
| 2026-05-05 16:38 | 44.21937 | 43.08807 | 1051 ft | 2 kts | 260° |
| 2026-05-05 16:39 | 44.21936 | 43.08827 | 1051 ft | 1 kts | 303° |
| 2026-05-05 16:39 | 44.21935 | 43.08829 | 1051 ft | 0 kts | 304° |
| 2026-05-05 16:40 | 44.21968 | 43.08756 | 1051 ft | 21 kts | 303° |
| 2026-05-05 16:40 | 44.22029 | 43.08564 | 1051 ft | 22 kts | 298° |
| 2026-05-05 16:40 | 44.22115 | 43.08376 | 1051 ft | 24 kts | 302° |
| 2026-05-05 16:40 | 44.22206 | 43.08173 | 1051 ft | 25 kts | 302° |
| 2026-05-05 16:41 | 44.22302 | 43.07958 | 1051 ft | 27 kts | 302° |
| 2026-05-05 16:41 | 44.22403 | 43.07734 | 1051 ft | 28 kts | 302° |
| 2026-05-05 16:41 | 44.22510 | 43.07499 | 1051 ft | 29 kts | 303° |
| 2026-05-05 16:41 | 44.22621 | 43.07255 | 1051 ft | 30 kts | 302° |
| 2026-05-05 16:42 | 44.22729 | 43.07136 | 1051 ft | 18 kts | 346° |
| 2026-05-05 16:42 | 44.22814 | 43.07108 | 1051 ft | 19 kts | 347° |
| 2026-05-05 16:42 | 44.22949 | 43.07063 | 1051 ft | 21 kts | 347° |
| 2026-05-05 16:42 | 44.23023 | 43.07156 | 1051 ft | 14 kts | 93° |
| 2026-05-05 16:43 | 44.23019 | 43.07298 | 1051 ft | 15 kts | 92° |
| 2026-05-05 16:43 | 44.23021 | 43.07443 | 1052 ft | 13 kts | 50° |
| 2026-05-05 16:43 | 44.23074 | 43.07415 | 1050 ft | 13 kts | 316° |
| 2026-05-05 16:43 | 44.23160 | 43.07245 | 1048 ft | 37 kts | 303° |
| 2026-05-05 16:44 | 44.23310 | 43.06921 | 1046 ft | 39 kts | 302° |
| 2026-05-05 16:44 | 44.23455 | 43.06607 | 1051 ft | 37 kts | 302° |
| 2026-05-05 16:44 | 44.23557 | 43.06299 | 1051 ft | 27 kts | 283° |
| 2026-05-05 16:44 | 44.23589 | 43.06254 | 1050 ft | 1 kts | 44° |
| 2026-05-05 16:45 | 44.23588 | 43.06295 | 1051 ft | 13 kts | 108° |
| 2026-05-05 16:45 | 44.23475 | 43.06549 | 1052 ft | 65 kts | 122° |
| 2026-05-05 16:45 | 44.23111 | 43.07362 | 1049 ft | 129 kts | 123° |
| 2026-05-05 16:45 | 44.22538 | 43.08593 | 1257 ft | 159 kts | 123° |
| 2026-05-05 16:46 | 44.21933 | 43.09886 | 1994 ft | 159 kts | 122° |
| 2026-05-05 16:46 | 44.21346 | 43.11207 | 2702 ft | 161 kts | 121° |
| 2026-05-05 16:46 | 44.20754 | 43.12564 | 3250 ft | 170 kts | 123° |
| 2026-05-05 16:46 | 44.20083 | 43.14049 | 3564 ft | 192 kts | 123° |
| 2026-05-05 16:47 | 44.19319 | 43.15712 | 3874 ft | 215 kts | 123° |
| 2026-05-05 16:47 | 44.18490 | 43.17523 | 4257 ft | 235 kts | 123° |
| 2026-05-05 16:47 | 44.17573 | 43.19541 | 4734 ft | 257 kts | 122° |
| 2026-05-05 16:47 | 44.16601 | 43.21686 | 5507 ft | 266 kts | 122° |
| 2026-05-05 16:48 | 44.15677 | 43.23956 | 6330 ft | 275 kts | 108° |
| 2026-05-05 16:48 | 44.15566 | 43.26611 | 7056 ft | 281 kts | 73° |
| 2026-05-05 16:48 | 44.16533 | 43.28941 | 7860 ft | 282 kts | 40° |
| 2026-05-05 16:48 | 44.18249 | 43.30156 | 8692 ft | 280 kts | 6° |
| 2026-05-05 16:49 | 44.20151 | 43.29866 | 9577 ft | 278 kts | 334° |
| 2026-05-05 16:49 | 44.21727 | 43.28320 | 10346 ft | 283 kts | 316° |
| 2026-05-05 16:49 | 44.23141 | 43.26240 | 10650 ft | 306 kts | 310° |
| 2026-05-05 16:49 | 44.24601 | 43.23924 | 10956 ft | 327 kts | 311° |
| 2026-05-05 16:50 | 44.26189 | 43.21577 | 11582 ft | 336 kts | 314° |
| 2026-05-05 16:50 | 44.27812 | 43.19202 | 12316 ft | 340 kts | 307° |
| 2026-05-05 16:50 | 44.29035 | 43.16362 | 13052 ft | 344 kts | 292° |
| 2026-05-05 16:50 | 44.29695 | 43.13138 | 13785 ft | 348 kts | 277° |
| 2026-05-05 16:51 | 44.29670 | 43.09750 | 14431 ft | 353 kts | 261° |
| 2026-05-05 16:51 | 44.29053 | 43.06462 | 15088 ft | 356 kts | 254° |
| 2026-05-05 16:51 | 44.28346 | 43.03127 | 15711 ft | 361 kts | 254° |
| 2026-05-05 16:51 | 44.27623 | 42.99748 | 16360 ft | 365 kts | 254° |
| 2026-05-05 16:52 | 44.26893 | 42.96337 | 17009 ft | 369 kts | 253° |
| 2026-05-05 16:52 | 44.26145 | 42.92841 | 17658 ft | 373 kts | 253° |
| 2026-05-05 16:52 | 44.25411 | 42.89399 | 18286 ft | 376 kts | 254° |
| 2026-05-05 16:52 | 44.24664 | 42.85879 | 18847 ft | 380 kts | 253° |
| 2026-05-05 16:53 | 44.23908 | 42.82322 | 19400 ft | 384 kts | 253° |
| 2026-05-05 16:53 | 44.23144 | 42.78729 | 19960 ft | 387 kts | 253° |
| 2026-05-05 16:53 | 44.22373 | 42.75112 | 20540 ft | 391 kts | 253° |
| 2026-05-05 16:53 | 44.21594 | 42.71465 | 21095 ft | 394 kts | 253° |
| 2026-05-05 16:54 | 44.20805 | 42.67793 | 21642 ft | 398 kts | 252° |
| 2026-05-05 16:54 | 44.20003 | 42.64078 | 22170 ft | 401 kts | 252° |
| 2026-05-05 16:54 | 44.19260 | 42.60310 | 22684 ft | 405 kts | 258° |
| 2026-05-05 16:54 | 44.18907 | 42.56401 | 23177 ft | 409 kts | 264° |
| 2026-05-05 16:55 | 44.18679 | 42.52475 | 23643 ft | 413 kts | 264° |
| 2026-05-05 16:55 | 44.18440 | 42.48474 | 24057 ft | 416 kts | 264° |
| 2026-05-05 16:55 | 44.18192 | 42.44449 | 24461 ft | 418 kts | 264° |
| 2026-05-05 16:55 | 44.17938 | 42.40389 | 24853 ft | 421 kts | 264° |
| 2026-05-05 16:56 | 44.17680 | 42.36311 | 25240 ft | 423 kts | 263° |
| 2026-05-05 16:56 | 44.17422 | 42.32199 | 25618 ft | 427 kts | 263° |
| 2026-05-05 16:56 | 44.17161 | 42.28065 | 25949 ft | 430 kts | 263° |
| 2026-05-05 16:56 | 44.16900 | 42.23946 | 26299 ft | 433 kts | 263° |
| 2026-05-05 16:57 | 44.16632 | 42.19751 | 26651 ft | 436 kts | 263° |
| 2026-05-05 16:57 | 44.16363 | 42.15528 | 26999 ft | 439 kts | 263° |
| 2026-05-05 16:57 | 44.16091 | 42.11278 | 27350 ft | 441 kts | 263° |
| 2026-05-05 16:57 | 44.15815 | 42.07006 | 27688 ft | 444 kts | 263° |
| 2026-05-05 16:58 | 44.15535 | 42.02712 | 27969 ft | 446 kts | 263° |
| 2026-05-05 16:58 | 44.15253 | 41.98426 | 28029 ft | 444 kts | 263° |
| 2026-05-05 16:58 | 44.14686 | 41.89893 | 28028 ft | 442 kts | 263° |
| 2026-05-05 16:59 | 44.14113 | 41.81402 | 28017 ft | 439 kts | 263° |
| 2026-05-05 16:59 | 44.13541 | 41.72970 | 28015 ft | 442 kts | 263° |
| 2026-05-05 17:00 | 44.12963 | 41.64438 | 28018 ft | 443 kts | 263° |
| 2026-05-05 17:00 | 44.12368 | 41.55871 | 28013 ft | 443 kts | 262° |
| 2026-05-05 17:01 | 44.11469 | 41.47420 | 28008 ft | 440 kts | 252° |
| 2026-05-05 17:01 | 44.09246 | 41.39519 | 28017 ft | 437 kts | 245° |
| 2026-05-05 17:02 | 44.06887 | 41.31779 | 28018 ft | 437 kts | 245° |
| 2026-05-05 17:02 | 44.04522 | 41.24000 | 28011 ft | 436 kts | 245° |
| 2026-05-05 17:03 | 44.02148 | 41.16236 | 28011 ft | 436 kts | 245° |
| 2026-05-05 17:03 | 43.99764 | 41.08493 | 28027 ft | 435 kts | 244° |
| 2026-05-05 17:04 | 43.97379 | 41.00773 | 28026 ft | 434 kts | 244° |
| 2026-05-05 17:04 | 43.95008 | 40.93103 | 28015 ft | 435 kts | 244° |
| 2026-05-05 17:05 | 43.92623 | 40.85393 | 28000 ft | 435 kts | 244° |
| 2026-05-05 17:05 | 43.91425 | 40.81538 | 27998 ft | 435 kts | 244° |
| 2026-05-05 17:05 | 43.90237 | 40.77731 | 28027 ft | 421 kts | 244° |
| 2026-05-05 17:06 | 43.89098 | 40.74079 | 28010 ft | 404 kts | 244° |
| 2026-05-05 17:06 | 43.88018 | 40.70564 | 28011 ft | 388 kts | 247° |
| 2026-05-05 17:06 | 43.87440 | 40.66978 | 28012 ft | 377 kts | 264° |
| 2026-05-05 17:06 | 43.87630 | 40.63423 | 28007 ft | 366 kts | 281° |
| 2026-05-05 17:07 | 43.88511 | 40.60191 | 28009 ft | 353 kts | 298° |
| 2026-05-05 17:07 | 43.89957 | 40.57492 | 28009 ft | 347 kts | 314° |
| 2026-05-05 17:07 | 43.91852 | 40.55432 | 28010 ft | 347 kts | 330° |
| 2026-05-05 17:07 | 43.94076 | 40.54152 | 28009 ft | 347 kts | 347° |
| 2026-05-05 17:08 | 43.96466 | 40.53744 | 28003 ft | 346 kts | 3° |
| 2026-05-05 17:08 | 43.98829 | 40.54239 | 28005 ft | 343 kts | 20° |
| 2026-05-05 17:08 | 44.00990 | 40.55571 | 27991 ft | 337 kts | 36° |
| 2026-05-05 17:08 | 44.02791 | 40.57593 | 28006 ft | 331 kts | 51° |
| 2026-05-05 17:09 | 44.04142 | 40.60139 | 28008 ft | 326 kts | 63° |
| 2026-05-05 17:09 | 44.05179 | 40.62896 | 28008 ft | 325 kts | 68° |
| 2026-05-05 17:09 | 44.06946 | 40.68669 | 27992 ft | 324 kts | 72° |
| 2026-05-05 17:10 | 44.07487 | 40.71672 | 27986 ft | 319 kts | 89° |
| 2026-05-05 17:10 | 44.07384 | 40.74724 | 27983 ft | 315 kts | 103° |
| 2026-05-05 17:10 | 44.06786 | 40.77637 | 27981 ft | 313 kts | 115° |
| 2026-05-05 17:10 | 44.05756 | 40.80270 | 28033 ft | 315 kts | 127° |
| 2026-05-05 17:11 | 44.04296 | 40.82540 | 28005 ft | 313 kts | 141° |
| 2026-05-05 17:11 | 44.02495 | 40.84222 | 28010 ft | 314 kts | 156° |
| 2026-05-05 17:11 | 44.00358 | 40.85084 | 28015 ft | 329 kts | 175° |
| 2026-05-05 17:11 | 43.98034 | 40.84767 | 28012 ft | 347 kts | 198° |
| 2026-05-05 17:12 | 43.95901 | 40.83062 | 28017 ft | 366 kts | 222° |
| 2026-05-05 17:12 | 43.94369 | 40.80135 | 28018 ft | 386 kts | 239° |
| 2026-05-05 17:12 | 43.93086 | 40.76763 | 27901 ft | 404 kts | 240° |
| 2026-05-05 17:12 | 43.91793 | 40.73190 | 27648 ft | 423 kts | 241° |
| 2026-05-05 17:13 | 43.90477 | 40.69471 | 27381 ft | 432 kts | 242° |
| 2026-05-05 17:13 | 43.89150 | 40.65714 | 27108 ft | 434 kts | 242° |
| 2026-05-05 17:13 | 43.87809 | 40.61958 | 26855 ft | 434 kts | 241° |
| 2026-05-05 17:13 | 43.86453 | 40.58230 | 26592 ft | 432 kts | 240° |
| 2026-05-05 17:14 | 43.85105 | 40.54570 | 26338 ft | 431 kts | 240° |
| 2026-05-05 17:14 | 43.83738 | 40.50884 | 26083 ft | 429 kts | 240° |
| 2026-05-05 17:14 | 43.82377 | 40.47221 | 25672 ft | 424 kts | 240° |
| 2026-05-05 17:14 | 43.81038 | 40.43610 | 25075 ft | 420 kts | 240° |
| 2026-05-05 17:15 | 43.79709 | 40.40030 | 24463 ft | 416 kts | 240° |
| 2026-05-05 17:15 | 43.78389 | 40.36485 | 23871 ft | 413 kts | 240° |
| 2026-05-05 17:15 | 43.77077 | 40.32966 | 23239 ft | 410 kts | 240° |
| 2026-05-05 17:15 | 43.75780 | 40.29484 | 22665 ft | 404 kts | 240° |
| 2026-05-05 17:16 | 43.74502 | 40.26051 | 22143 ft | 399 kts | 240° |
| 2026-05-05 17:16 | 43.73239 | 40.22665 | 21641 ft | 396 kts | 240° |
| 2026-05-05 17:16 | 43.71985 | 40.19299 | 21159 ft | 391 kts | 240° |
| 2026-05-05 17:16 | 43.70725 | 40.15989 | 20684 ft | 386 kts | 237° |
| 2026-05-05 17:17 | 43.69170 | 40.13004 | 20242 ft | 380 kts | 226° |
| 2026-05-05 17:17 | 43.67232 | 40.10490 | 19998 ft | 385 kts | 216° |
| 2026-05-05 17:17 | 43.64972 | 40.08488 | 19919 ft | 386 kts | 205° |
| 2026-05-05 17:17 | 43.62535 | 40.06922 | 19821 ft | 387 kts | 202° |
| 2026-05-05 17:18 | 43.60085 | 40.05383 | 19565 ft | 386 kts | 203° |
| 2026-05-05 17:18 | 43.57645 | 40.03851 | 19310 ft | 385 kts | 202° |
| 2026-05-05 17:18 | 43.55204 | 40.02320 | 19073 ft | 384 kts | 203° |
| 2026-05-05 17:18 | 43.52775 | 40.00798 | 18827 ft | 382 kts | 202° |
| 2026-05-05 17:19 | 43.50358 | 39.99285 | 18593 ft | 382 kts | 202° |
| 2026-05-05 17:19 | 43.47947 | 39.97777 | 18263 ft | 390 kts | 203° |
| 2026-05-05 17:19 | 43.45494 | 39.96271 | 17746 ft | 388 kts | 200° |
| 2026-05-05 17:19 | 43.42970 | 39.95090 | 17342 ft | 380 kts | 197° |
| 2026-05-05 17:20 | 43.40477 | 39.93963 | 16923 ft | 373 kts | 197° |
| 2026-05-05 17:20 | 43.38022 | 39.92847 | 16519 ft | 370 kts | 197° |
| 2026-05-05 17:20 | 43.35581 | 39.91728 | 16108 ft | 368 kts | 197° |
| 2026-05-05 17:20 | 43.33161 | 39.90614 | 15713 ft | 366 kts | 197° |
| 2026-05-05 17:21 | 43.30754 | 39.89510 | 15317 ft | 363 kts | 197° |
| 2026-05-05 17:21 | 43.28362 | 39.88421 | 14924 ft | 361 kts | 197° |
| 2026-05-05 17:21 | 43.25988 | 39.87346 | 14576 ft | 356 kts | 197° |
| 2026-05-05 17:22 | 43.21460 | 39.85292 | 14328 ft | 330 kts | 197° |
| 2026-05-05 17:22 | 43.20034 | 39.84649 | 14248 ft | 322 kts | 197° |
| 2026-05-05 17:22 | 43.17940 | 39.83702 | 14127 ft | 311 kts | 197° |
| 2026-05-05 17:22 | 43.15906 | 39.82781 | 13901 ft | 305 kts | 197° |
| 2026-05-05 17:23 | 43.13250 | 39.81575 | 13442 ft | 302 kts | 197° |
| 2026-05-05 17:23 | 43.11902 | 39.80964 | 13186 ft | 301 kts | 197° |
| 2026-05-05 17:23 | 43.09933 | 39.80074 | 12626 ft | 296 kts | 197° |
| 2026-05-05 17:23 | 43.07989 | 39.79165 | 11917 ft | 294 kts | 202° |
| 2026-05-05 17:24 | 43.06325 | 39.77575 | 11273 ft | 296 kts | 227° |
| 2026-05-05 17:24 | 43.05304 | 39.75147 | 10895 ft | 297 kts | 252° |
| 2026-05-05 17:24 | 43.05118 | 39.72361 | 10536 ft | 297 kts | 277° |
| 2026-05-05 17:24 | 43.05709 | 39.69702 | 10027 ft | 301 kts | 296° |
| 2026-05-05 17:25 | 43.06983 | 39.67460 | 9368 ft | 297 kts | 320° |
| 2026-05-05 17:25 | 43.08130 | 39.66427 | 8928 ft | 293 kts | 336° |
| 2026-05-05 17:25 | 43.10705 | 39.65656 | 8059 ft | 285 kts | 356° |
| 2026-05-05 17:25 | 43.11822 | 39.65538 | 7661 ft | 283 kts | 356° |
| 2026-05-05 17:26 | 43.13292 | 39.65388 | 7208 ft | 278 kts | 356° |
| 2026-05-05 17:26 | 43.15198 | 39.65196 | 6710 ft | 273 kts | 356° |
| 2026-05-05 17:26 | 43.17105 | 39.65180 | 6185 ft | 274 kts | 9° |
| 2026-05-05 17:26 | 43.18849 | 39.66049 | 5544 ft | 268 kts | 33° |
| 2026-05-05 17:27 | 43.20087 | 39.67911 | 4816 ft | 267 kts | 56° |
| 2026-05-05 17:27 | 43.21080 | 39.70091 | 4275 ft | 269 kts | 57° |
| 2026-05-05 17:27 | 43.22057 | 39.72271 | 3797 ft | 269 kts | 58° |
| 2026-05-05 17:27 | 43.23029 | 39.74444 | 3408 ft | 265 kts | 59° |
| 2026-05-05 17:28 | 43.23996 | 39.76607 | 2953 ft | 264 kts | 59° |
| 2026-05-05 17:28 | 43.24940 | 39.78721 | 2733 ft | 254 kts | 58° |
| 2026-05-05 17:28 | 43.25861 | 39.80705 | 2607 ft | 240 kts | 51° |
| 2026-05-05 17:28 | 43.27070 | 39.82167 | 2513 ft | 226 kts | 32° |
| 2026-05-05 17:29 | 43.28396 | 39.83215 | 2418 ft | 214 kts | 28° |
| 2026-05-05 17:29 | 43.29678 | 39.84160 | 2326 ft | 204 kts | 26° |
| 2026-05-05 17:29 | 43.30874 | 39.85049 | 2253 ft | 192 kts | 27° |
| 2026-05-05 17:29 | 43.31991 | 39.85884 | 2167 ft | 173 kts | 27° |
| 2026-05-05 17:30 | 43.32991 | 39.86632 | 2073 ft | 154 kts | 26° |
| 2026-05-05 17:30 | 43.33882 | 39.87299 | 2045 ft | 142 kts | 26° |
| 2026-05-05 17:30 | 43.34745 | 39.87951 | 1885 ft | 140 kts | 28° |
| 2026-05-05 17:30 | 43.35592 | 39.88605 | 1740 ft | 139 kts | 28° |
| 2026-05-05 17:31 | 43.36436 | 39.89254 | 1588 ft | 139 kts | 27° |
| 2026-05-05 17:31 | 43.37291 | 39.89869 | 1412 ft | 139 kts | 27° |
| 2026-05-05 17:31 | 43.38135 | 39.90510 | 1150 ft | 138 kts | 27° |
| 2026-05-05 17:31 | 43.38978 | 39.91133 | 1010 ft | 138 kts | 26° |
| 2026-05-05 17:32 | 43.39826 | 39.91761 | 823 ft | 137 kts | 26° |
| 2026-05-05 17:32 | 43.40668 | 39.92381 | 722 ft | 137 kts | 25° |
| 2026-05-05 17:32 | 43.41497 | 39.92992 | 530 ft | 138 kts | 28° |
| 2026-05-05 17:32 | 43.42345 | 39.93636 | 336 ft | 137 kts | 26° |
| 2026-05-05 17:33 | 43.43184 | 39.94271 | 175 ft | 138 kts | 28° |
| 2026-05-05 17:33 | 43.43990 | 39.94873 | 69 ft | 121 kts | 28° |
| 2026-05-05 17:33 | 43.44574 | 39.95314 | 84 ft | 72 kts | 28° |
| 2026-05-05 17:33 | 43.44928 | 39.95588 | 89 ft | 34 kts | 27° |
| 2026-05-05 17:34 | 43.45004 | 39.95553 | 92 ft | 18 kts | 325° |
| 2026-05-05 17:34 | 43.45052 | 39.95456 | 91 ft | 10 kts | 258° |
| 2026-05-05 17:34 | 43.45023 | 39.95365 | 91 ft | 12 kts | 247° |
| 2026-05-05 17:34 | 43.44950 | 39.95143 | 83 ft | 40 kts | 245° |
| 2026-05-05 17:35 | 43.44829 | 39.94793 | 67 ft | 38 kts | 244° |
| 2026-05-05 17:35 | 43.44765 | 39.94562 | 71 ft | 8 kts | 298° |
| 2026-05-05 17:35 | 43.44786 | 39.94540 | 71 ft | 3 kts | 324° |
| 2026-05-05 17:35 | 43.44805 | 39.94526 | 75 ft | 3 kts | 333° |
| 2026-05-05 17:36 | 43.44844 | 39.94502 | 74 ft | 0 kts | 334° |